sensor_id;sensor_type;location;lat;lon;timestamp;temperature;humidity
66337;SHT30;53139;45.576;5.304;2022-08-19T00:01:47;18.06;86.90
66337;SHT30;53139;45.576;5.304;2022-08-19T00:04:47;18.05;87.17
66337;SHT30;53139;45.576;5.304;2022-08-19T00:07:52;18.06;87.49
66337;SHT30;53139;45.576;5.304;2022-08-19T00:10:52;18.11;87.46
66337;SHT30;53139;45.576;5.304;2022-08-19T00:13:54;18.09;87.39
66337;SHT30;53139;45.576;5.304;2022-08-19T00:16:54;18.09;87.34
66337;SHT30;53139;45.576;5.304;2022-08-19T00:19:55;18.08;87.60
66337;SHT30;53139;45.576;5.304;2022-08-19T00:22:56;18.06;87.81
66337;SHT30;53139;45.576;5.304;2022-08-19T00:25:56;18.08;87.99
66337;SHT30;53139;45.576;5.304;2022-08-19T00:28:56;18.00;87.71
66337;SHT30;53139;45.576;5.304;2022-08-19T00:31:57;17.95;88.36
66337;SHT30;53139;45.576;5.304;2022-08-19T00:35:00;17.94;88.42
66337;SHT30;53139;45.576;5.304;2022-08-19T00:38:00;17.87;88.60
66337;SHT30;53139;45.576;5.304;2022-08-19T00:41:01;17.85;88.58
66337;SHT30;53139;45.576;5.304;2022-08-19T00:47:04;17.80;88.77
66337;SHT30;53139;45.576;5.304;2022-08-19T00:50:06;17.81;89.10
66337;SHT30;53139;45.576;5.304;2022-08-19T00:53:10;17.74;89.31
66337;SHT30;53139;45.576;5.304;2022-08-19T00:56:10;17.73;89.63
66337;SHT30;53139;45.576;5.304;2022-08-19T00:59:14;17.67;89.87
66337;SHT30;53139;45.576;5.304;2022-08-19T01:02:16;17.70;90.05
66337;SHT30;53139;45.576;5.304;2022-08-19T01:05:21;17.71;90.17
66337;SHT30;53139;45.576;5.304;2022-08-19T01:08:23;17.66;90.20
66337;SHT30;53139;45.576;5.304;2022-08-19T01:11:23;17.67;90.36
66337;SHT30;53139;45.576;5.304;2022-08-19T01:14:24;17.69;90.55
66337;SHT30;53139;45.576;5.304;2022-08-19T01:17:25;17.66;90.64
66337;SHT30;53139;45.576;5.304;2022-08-19T01:20:25;17.67;90.70
66337;SHT30;53139;45.576;5.304;2022-08-19T01:23:26;17.64;90.83
66337;SHT30;53139;45.576;5.304;2022-08-19T01:26:43;17.71;90.96
66337;SHT30;53139;45.576;5.304;2022-08-19T01:29:44;17.66;90.93
66337;SHT30;53139;45.576;5.304;2022-08-19T01:32:45;17.69;90.96
66337;SHT30;53139;45.576;5.304;2022-08-19T01:35:46;17.70;90.92
66337;SHT30;53139;45.576;5.304;2022-08-19T01:38:50;17.63;90.91
66337;SHT30;53139;45.576;5.304;2022-08-19T01:41:51;17.67;90.84
66337;SHT30;53139;45.576;5.304;2022-08-19T01:44:54;17.63;90.87
66337;SHT30;53139;45.576;5.304;2022-08-19T01:47:55;17.62;90.75
66337;SHT30;53139;45.576;5.304;2022-08-19T01:50:56;17.57;90.61
66337;SHT30;53139;45.576;5.304;2022-08-19T01:53:56;17.60;90.48
66337;SHT30;53139;45.576;5.304;2022-08-19T01:57:03;17.59;90.43
66337;SHT30;53139;45.576;5.304;2022-08-19T02:00:10;17.62;90.70
66337;SHT30;53139;45.576;5.304;2022-08-19T02:03:11;17.60;90.57
66337;SHT30;53139;45.576;5.304;2022-08-19T02:06:12;17.60;90.69
66337;SHT30;53139;45.576;5.304;2022-08-19T02:09:12;17.56;90.66
66337;SHT30;53139;45.576;5.304;2022-08-19T02:12:14;17.51;90.71
66337;SHT30;53139;45.576;5.304;2022-08-19T02:15:15;17.54;90.91
66337;SHT30;53139;45.576;5.304;2022-08-19T02:18:16;17.50;91.02
66337;SHT30;53139;45.576;5.304;2022-08-19T02:21:18;17.50;91.05
66337;SHT30;53139;45.576;5.304;2022-08-19T02:24:19;17.53;90.98
66337;SHT30;53139;45.576;5.304;2022-08-19T02:27:19;17.49;91.21
66337;SHT30;53139;45.576;5.304;2022-08-19T02:30:21;17.59;91.33
66337;SHT30;53139;45.576;5.304;2022-08-19T02:33:21;17.54;91.44
66337;SHT30;53139;45.576;5.304;2022-08-19T02:36:22;17.56;91.41
66337;SHT30;53139;45.576;5.304;2022-08-19T02:39:23;17.56;91.45
66337;SHT30;53139;45.576;5.304;2022-08-19T02:42:24;17.57;91.37
66337;SHT30;53139;45.576;5.304;2022-08-19T02:45:24;17.56;91.29
66337;SHT30;53139;45.576;5.304;2022-08-19T02:48:25;17.54;91.28
66337;SHT30;53139;45.576;5.304;2022-08-19T02:51:37;17.51;91.29
66337;SHT30;53139;45.576;5.304;2022-08-19T02:54:38;17.46;91.29
66337;SHT30;53139;45.576;5.304;2022-08-19T02:57:38;17.47;91.27
66337;SHT30;53139;45.576;5.304;2022-08-19T03:00:44;17.45;91.32
66337;SHT30;53139;45.576;5.304;2022-08-19T03:03:44;17.43;91.46
66337;SHT30;53139;45.576;5.304;2022-08-19T03:06:47;17.46;91.40
66337;SHT30;53139;45.576;5.304;2022-08-19T03:09:47;17.43;91.40
66337;SHT30;53139;45.576;5.304;2022-08-19T03:12:47;17.42;91.38
66337;SHT30;53139;45.576;5.304;2022-08-19T03:15:48;17.47;91.34
66337;SHT30;53139;45.576;5.304;2022-08-19T03:18:49;17.47;91.30
66337;SHT30;53139;45.576;5.304;2022-08-19T03:21:50;17.47;91.21
66337;SHT30;53139;45.576;5.304;2022-08-19T03:24:51;17.35;91.24
66337;SHT30;53139;45.576;5.304;2022-08-19T03:27:51;17.40;91.32
66337;SHT30;53139;45.576;5.304;2022-08-19T03:30:57;17.37;91.35
66337;SHT30;53139;45.576;5.304;2022-08-19T03:33:58;17.36;91.44
66337;SHT30;53139;45.576;5.304;2022-08-19T03:37:02;17.35;91.30
66337;SHT30;53139;45.576;5.304;2022-08-19T03:40:04;17.39;91.12
66337;SHT30;53139;45.576;5.304;2022-08-19T03:43:05;17.39;91.11
66337;SHT30;53139;45.576;5.304;2022-08-19T03:46:09;17.40;91.33
66337;SHT30;53139;45.576;5.304;2022-08-19T03:49:09;17.32;91.28
66337;SHT30;53139;45.576;5.304;2022-08-19T03:52:10;17.37;91.30
66337;SHT30;53139;45.576;5.304;2022-08-19T03:55:11;17.40;91.40
66337;SHT30;53139;45.576;5.304;2022-08-19T03:58:11;17.40;91.43
66337;SHT30;53139;45.576;5.304;2022-08-19T04:01:15;17.39;91.48
66337;SHT30;53139;45.576;5.304;2022-08-19T04:04:15;17.32;91.43
66337;SHT30;53139;45.576;5.304;2022-08-19T04:07:15;17.39;91.44
66337;SHT30;53139;45.576;5.304;2022-08-19T04:10:16;17.42;91.60
66337;SHT30;53139;45.576;5.304;2022-08-19T04:13:17;17.39;91.56
66337;SHT30;53139;45.576;5.304;2022-08-19T04:16:20;17.43;91.47
66337;SHT30;53139;45.576;5.304;2022-08-19T04:19:21;17.37;91.48
66337;SHT30;53139;45.576;5.304;2022-08-19T04:22:23;17.37;91.43
66337;SHT30;53139;45.576;5.304;2022-08-19T04:25:23;17.42;91.37
66337;SHT30;53139;45.576;5.304;2022-08-19T04:28:24;17.35;91.44
66337;SHT30;53139;45.576;5.304;2022-08-19T04:31:28;17.37;91.24
66337;SHT30;53139;45.576;5.304;2022-08-19T04:34:29;17.37;91.31
66337;SHT30;53139;45.576;5.304;2022-08-19T04:37:30;17.37;91.27
66337;SHT30;53139;45.576;5.304;2022-08-19T04:40:32;17.40;91.34
66337;SHT30;53139;45.576;5.304;2022-08-19T04:43:51;17.35;91.28
66337;SHT30;53139;45.576;5.304;2022-08-19T04:46:52;17.39;91.45
66337;SHT30;53139;45.576;5.304;2022-08-19T04:49:53;17.39;91.53
66337;SHT30;53139;45.576;5.304;2022-08-19T04:52:54;17.42;91.58
66337;SHT30;53139;45.576;5.304;2022-08-19T04:55:57;17.42;91.49
66337;SHT30;53139;45.576;5.304;2022-08-19T04:58:59;17.39;91.54
66337;SHT30;53139;45.576;5.304;2022-08-19T05:02:03;17.43;91.58
66337;SHT30;53139;45.576;5.304;2022-08-19T05:05:04;17.40;91.56
66337;SHT30;53139;45.576;5.304;2022-08-19T05:08:06;17.47;91.75
66337;SHT30;53139;45.576;5.304;2022-08-19T05:11:12;17.49;91.76
66337;SHT30;53139;45.576;5.304;2022-08-19T05:14:12;17.46;91.73
66337;SHT30;53139;45.576;5.304;2022-08-19T05:17:15;17.49;91.82
66337;SHT30;53139;45.576;5.304;2022-08-19T05:20:16;17.50;91.84
66337;SHT30;53139;45.576;5.304;2022-08-19T05:23:34;17.51;91.72
66337;SHT30;53139;45.576;5.304;2022-08-19T05:26:39;17.50;91.73
66337;SHT30;53139;45.576;5.304;2022-08-19T05:29:40;17.53;91.66
66337;SHT30;53139;45.576;5.304;2022-08-19T05:32:40;17.57;91.68
66337;SHT30;53139;45.576;5.304;2022-08-19T05:35:41;17.50;91.61
66337;SHT30;53139;45.576;5.304;2022-08-19T05:38:41;17.53;91.52
66337;SHT30;53139;45.576;5.304;2022-08-19T05:41:43;17.54;91.55
66337;SHT30;53139;45.576;5.304;2022-08-19T05:44:44;17.56;91.50
66337;SHT30;53139;45.576;5.304;2022-08-19T05:47:44;17.54;91.56
66337;SHT30;53139;45.576;5.304;2022-08-19T05:50:45;17.53;91.68
66337;SHT30;53139;45.576;5.304;2022-08-19T05:53:45;17.54;91.54
66337;SHT30;53139;45.576;5.304;2022-08-19T05:56:46;17.54;91.49
66337;SHT30;53139;45.576;5.304;2022-08-19T05:59:47;17.49;91.47
66337;SHT30;53139;45.576;5.304;2022-08-19T06:02:51;17.50;91.64
66337;SHT30;53139;45.576;5.304;2022-08-19T06:05:51;17.50;91.75
66337;SHT30;53139;45.576;5.304;2022-08-19T06:08:55;17.56;91.89
66337;SHT30;53139;45.576;5.304;2022-08-19T06:11:57;17.56;91.99
66337;SHT30;53139;45.576;5.304;2022-08-19T06:15:03;17.66;92.11
66337;SHT30;53139;45.576;5.304;2022-08-19T06:18:04;17.63;92.18
66337;SHT30;53139;45.576;5.304;2022-08-19T06:21:04;17.69;92.18
66337;SHT30;53139;45.576;5.304;2022-08-19T06:24:07;17.66;92.14
66337;SHT30;53139;45.576;5.304;2022-08-19T06:27:08;17.77;92.05
66337;SHT30;53139;45.576;5.304;2022-08-19T06:30:09;17.84;92.03
66337;SHT30;53139;45.576;5.304;2022-08-19T06:33:10;17.88;91.94
66337;SHT30;53139;45.576;5.304;2022-08-19T06:36:28;17.88;91.92
66337;SHT30;53139;45.576;5.304;2022-08-19T06:39:34;17.91;91.74
66337;SHT30;53139;45.576;5.304;2022-08-19T06:42:35;17.83;91.51
66337;SHT30;53139;45.576;5.304;2022-08-19T06:45:37;17.90;91.52
66337;SHT30;53139;45.576;5.304;2022-08-19T06:48:38;17.85;91.65
66337;SHT30;53139;45.576;5.304;2022-08-19T06:51:41;17.88;91.62
66337;SHT30;53139;45.576;5.304;2022-08-19T06:54:42;17.98;91.57
66337;SHT30;53139;45.576;5.304;2022-08-19T06:57:42;18.05;91.48
66337;SHT30;53139;45.576;5.304;2022-08-19T07:00:44;18.02;91.33
66337;SHT30;53139;45.576;5.304;2022-08-19T07:03:45;18.11;91.19
66337;SHT30;53139;45.576;5.304;2022-08-19T07:06:46;18.26;91.13
66337;SHT30;53139;45.576;5.304;2022-08-19T07:09:48;18.26;91.02
66337;SHT30;53139;45.576;5.304;2022-08-19T07:12:49;18.25;90.87
66337;SHT30;53139;45.576;5.304;2022-08-19T07:15:50;18.22;90.84
66337;SHT30;53139;45.576;5.304;2022-08-19T07:18:51;18.32;90.76
66337;SHT30;53139;45.576;5.304;2022-08-19T07:21:51;18.43;90.79
66337;SHT30;53139;45.576;5.304;2022-08-19T07:24:52;18.39;90.87
66337;SHT30;53139;45.576;5.304;2022-08-19T07:27:53;18.26;90.84
66337;SHT30;53139;45.576;5.304;2022-08-19T07:30:53;18.36;90.94
66337;SHT30;53139;45.576;5.304;2022-08-19T07:33:55;18.37;90.62
66337;SHT30;53139;45.576;5.304;2022-08-19T07:36:56;18.49;90.70
66337;SHT30;53139;45.576;5.304;2022-08-19T07:39:57;18.35;90.75
66337;SHT30;53139;45.576;5.304;2022-08-19T07:42:57;18.47;90.83
66337;SHT30;53139;45.576;5.304;2022-08-19T07:45:58;18.40;90.95
66337;SHT30;53139;45.576;5.304;2022-08-19T07:48:59;18.53;90.99
66337;SHT30;53139;45.576;5.304;2022-08-19T07:52:05;18.61;90.87
66337;SHT30;53139;45.576;5.304;2022-08-19T07:55:09;18.47;90.45
66337;SHT30;53139;45.576;5.304;2022-08-19T07:58:12;18.49;90.36
66337;SHT30;53139;45.576;5.304;2022-08-19T08:01:18;18.59;90.02
66337;SHT30;53139;45.576;5.304;2022-08-19T08:04:20;18.68;90.22
66337;SHT30;53139;45.576;5.304;2022-08-19T08:07:38;18.68;90.47
66337;SHT30;53139;45.576;5.304;2022-08-19T08:10:58;18.66;90.48
66337;SHT30;53139;45.576;5.304;2022-08-19T08:13:59;18.63;90.38
66337;SHT30;53139;45.576;5.304;2022-08-19T08:16:59;18.73;90.51
66337;SHT30;53139;45.576;5.304;2022-08-19T08:20:00;18.71;90.37
66337;SHT30;53139;45.576;5.304;2022-08-19T08:23:00;18.68;90.46
66337;SHT30;53139;45.576;5.304;2022-08-19T08:26:19;18.59;90.46
66337;SHT30;53139;45.576;5.304;2022-08-19T08:29:19;18.54;90.58
66337;SHT30;53139;45.576;5.304;2022-08-19T08:32:20;18.70;90.89
66337;SHT30;53139;45.576;5.304;2022-08-19T08:35:22;18.88;91.11
66337;SHT30;53139;45.576;5.304;2022-08-19T08:38:22;18.81;90.51
66337;SHT30;53139;45.576;5.304;2022-08-19T08:41:28;18.91;90.21
66337;SHT30;53139;45.576;5.304;2022-08-19T08:47:37;19.09;89.37
66337;SHT30;53139;45.576;5.304;2022-08-19T08:50:43;19.30;89.42
66337;SHT30;53139;45.576;5.304;2022-08-19T08:53:46;19.38;88.91
66337;SHT30;53139;45.576;5.304;2022-08-19T08:56:49;19.40;88.64
66337;SHT30;53139;45.576;5.304;2022-08-19T08:59:51;19.35;88.78
66337;SHT30;53139;45.576;5.304;2022-08-19T09:02:54;19.33;88.33
66337;SHT30;53139;45.576;5.304;2022-08-19T09:09:04;19.39;89.24
66337;SHT30;53139;45.576;5.304;2022-08-19T09:15:45;19.39;88.92
66337;SHT30;53139;45.576;5.304;2022-08-19T09:18:50;19.67;89.16
66337;SHT30;53139;45.576;5.304;2022-08-19T09:21:54;19.84;87.69
66337;SHT30;53139;45.576;5.304;2022-08-19T09:24:54;19.91;88.28
66337;SHT30;53139;45.576;5.304;2022-08-19T09:27:55;19.87;87.17
66337;SHT30;53139;45.576;5.304;2022-08-19T09:30:56;20.05;87.54
66337;SHT30;53139;45.576;5.304;2022-08-19T09:33:57;20.19;87.53
66337;SHT30;53139;45.576;5.304;2022-08-19T09:36:57;19.85;87.34
66337;SHT30;53139;45.576;5.304;2022-08-19T09:40:00;19.84;87.51
66337;SHT30;53139;45.576;5.304;2022-08-19T09:43:00;20.11;86.77
66337;SHT30;53139;45.576;5.304;2022-08-19T09:46:06;20.28;87.05
66337;SHT30;53139;45.576;5.304;2022-08-19T09:49:09;20.33;86.50
66337;SHT30;53139;45.576;5.304;2022-08-19T09:52:10;20.79;86.76
66337;SHT30;53139;45.576;5.304;2022-08-19T09:55:11;20.94;85.36
66337;SHT30;53139;45.576;5.304;2022-08-19T09:58:12;20.95;85.75
66337;SHT30;53139;45.576;5.304;2022-08-19T10:01:24;20.69;85.29
66337;SHT30;53139;45.576;5.304;2022-08-19T10:04:25;21.18;86.70
66337;SHT30;53139;45.576;5.304;2022-08-19T10:07:45;21.18;84.88
66337;SHT30;53139;45.576;5.304;2022-08-19T10:10:47;21.97;83.26
66337;SHT30;53139;45.576;5.304;2022-08-19T10:13:48;22.69;81.31
66337;SHT30;53139;45.576;5.304;2022-08-19T10:16:48;23.17;81.82
66337;SHT30;53139;45.576;5.304;2022-08-19T10:19:49;23.06;81.17
66337;SHT30;53139;45.576;5.304;2022-08-19T10:22:49;22.49;81.33
66337;SHT30;53139;45.576;5.304;2022-08-19T10:25:50;21.25;83.34
66337;SHT30;53139;45.576;5.304;2022-08-19T10:28:54;21.07;85.40
66337;SHT30;53139;45.576;5.304;2022-08-19T10:31:55;20.56;84.48
66337;SHT30;53139;45.576;5.304;2022-08-19T10:34:56;20.40;85.60
66337;SHT30;53139;45.576;5.304;2022-08-19T10:37:57;20.22;85.52
66337;SHT30;53139;45.576;5.304;2022-08-19T10:41:16;19.97;85.79
66337;SHT30;53139;45.576;5.304;2022-08-19T10:44:16;19.92;87.05
66337;SHT30;53139;45.576;5.304;2022-08-19T10:47:18;19.87;87.56
66337;SHT30;53139;45.576;5.304;2022-08-19T10:50:18;19.62;86.81
66337;SHT30;53139;45.576;5.304;2022-08-19T10:53:37;19.53;87.23
66337;SHT30;53139;45.576;5.304;2022-08-19T10:56:38;19.56;87.80
66337;SHT30;53139;45.576;5.304;2022-08-19T10:59:56;19.60;87.36
66337;SHT30;53139;45.576;5.304;2022-08-19T11:02:57;19.47;87.57
66337;SHT30;53139;45.576;5.304;2022-08-19T11:06:02;19.56;87.94
66337;SHT30;53139;45.576;5.304;2022-08-19T11:09:07;19.49;87.84
66337;SHT30;53139;45.576;5.304;2022-08-19T11:12:08;19.50;87.30
66337;SHT30;53139;45.576;5.304;2022-08-19T11:15:09;19.57;87.48
66337;SHT30;53139;45.576;5.304;2022-08-19T11:18:11;19.67;86.54
66337;SHT30;53139;45.576;5.304;2022-08-19T11:24:21;19.78;86.07
66337;SHT30;53139;45.576;5.304;2022-08-19T11:27:22;19.81;85.59
66337;SHT30;53139;45.576;5.304;2022-08-19T11:30:23;19.69;84.93
66337;SHT30;53139;45.576;5.304;2022-08-19T11:33:23;19.84;85.82
66337;SHT30;53139;45.576;5.304;2022-08-19T11:36:27;19.84;85.03
66337;SHT30;53139;45.576;5.304;2022-08-19T11:39:29;19.69;85.45
66337;SHT30;53139;45.576;5.304;2022-08-19T11:42:30;19.67;85.39
66337;SHT30;53139;45.576;5.304;2022-08-19T11:45:49;19.87;84.95
66337;SHT30;53139;45.576;5.304;2022-08-19T11:48:49;19.77;85.10
66337;SHT30;53139;45.576;5.304;2022-08-19T11:51:50;19.52;84.29
66337;SHT30;53139;45.576;5.304;2022-08-19T11:54:51;19.59;85.39
66337;SHT30;53139;45.576;5.304;2022-08-19T11:57:51;19.60;85.39
66337;SHT30;53139;45.576;5.304;2022-08-19T12:00:52;19.40;85.26
66337;SHT30;53139;45.576;5.304;2022-08-19T12:03:54;19.45;85.67
66337;SHT30;53139;45.576;5.304;2022-08-19T12:06:54;19.38;85.80
66337;SHT30;53139;45.576;5.304;2022-08-19T12:09:55;19.42;86.14
66337;SHT30;53139;45.576;5.304;2022-08-19T12:12:56;19.38;86.16
66337;SHT30;53139;45.576;5.304;2022-08-19T12:15:57;19.38;86.72
66337;SHT30;53139;45.576;5.304;2022-08-19T12:18:59;19.38;86.27
66337;SHT30;53139;45.576;5.304;2022-08-19T12:22:04;19.38;86.25
66337;SHT30;53139;45.576;5.304;2022-08-19T12:25:07;19.42;85.95
66337;SHT30;53139;45.576;5.304;2022-08-19T12:28:08;19.45;85.91
66337;SHT30;53139;45.576;5.304;2022-08-19T12:31:09;19.53;85.99
66337;SHT30;53139;45.576;5.304;2022-08-19T12:34:12;19.62;86.06
66337;SHT30;53139;45.576;5.304;2022-08-19T12:37:13;19.73;86.14
66337;SHT30;53139;45.576;5.304;2022-08-19T12:40:15;19.80;86.22
66337;SHT30;53139;45.576;5.304;2022-08-19T12:43:16;19.92;85.35
66337;SHT30;53139;45.576;5.304;2022-08-19T12:46:17;20.00;85.34
66337;SHT30;53139;45.576;5.304;2022-08-19T12:49:18;20.18;83.99
66337;SHT30;53139;45.576;5.304;2022-08-19T12:52:19;20.43;83.81
66337;SHT30;53139;45.576;5.304;2022-08-19T12:55:21;20.84;82.67
66337;SHT30;53139;45.576;5.304;2022-08-19T12:58:21;21.11;83.02
66337;SHT30;53139;45.576;5.304;2022-08-19T13:01:22;21.39;83.86
66337;SHT30;53139;45.576;5.304;2022-08-19T13:04:22;21.31;80.41
66337;SHT30;53139;45.576;5.304;2022-08-19T13:07:23;21.34;81.81
66337;SHT30;53139;45.576;5.304;2022-08-19T13:10:29;21.22;81.03
66337;SHT30;53139;45.576;5.304;2022-08-19T13:13:31;20.93;82.24
66337;SHT30;53139;45.576;5.304;2022-08-19T13:16:31;20.87;83.02
66337;SHT30;53139;45.576;5.304;2022-08-19T13:19:32;20.67;81.95
66337;SHT30;53139;45.576;5.304;2022-08-19T13:22:33;20.43;82.87
66337;SHT30;53139;45.576;5.304;2022-08-19T13:25:35;20.36;81.86
66337;SHT30;53139;45.576;5.304;2022-08-19T13:28:36;20.40;82.99
66337;SHT30;53139;45.576;5.304;2022-08-19T13:31:55;20.29;82.44
66337;SHT30;53139;45.576;5.304;2022-08-19T13:35:16;20.25;83.70
66337;SHT30;53139;45.576;5.304;2022-08-19T13:38:20;20.22;83.58
66337;SHT30;53139;45.576;5.304;2022-08-19T13:41:20;20.15;84.13
66337;SHT30;53139;45.576;5.304;2022-08-19T13:44:21;20.07;82.66
66337;SHT30;53139;45.576;5.304;2022-08-19T13:47:21;20.11;83.40
66337;SHT30;53139;45.576;5.304;2022-08-19T13:50:26;20.24;83.67
66337;SHT30;53139;45.576;5.304;2022-08-19T13:53:26;20.38;84.06
66337;SHT30;53139;45.576;5.304;2022-08-19T13:56:27;20.47;82.75
66337;SHT30;53139;45.576;5.304;2022-08-19T13:59:27;20.77;85.15
66337;SHT30;53139;45.576;5.304;2022-08-19T14:02:28;20.97;83.37
66337;SHT30;53139;45.576;5.304;2022-08-19T14:05:29;21.21;83.09
66337;SHT30;53139;45.576;5.304;2022-08-19T14:08:30;21.35;82.25
66337;SHT30;53139;45.576;5.304;2022-08-19T14:11:32;21.79;81.43
66337;SHT30;53139;45.576;5.304;2022-08-19T14:14:36;23.80;79.28
66337;SHT30;53139;45.576;5.304;2022-08-19T14:17:38;23.82;72.97
66337;SHT30;53139;45.576;5.304;2022-08-19T14:20:40;24.71;72.85
66337;SHT30;53139;45.576;5.304;2022-08-19T14:23:40;24.72;70.79
66337;SHT30;53139;45.576;5.304;2022-08-19T14:26:40;25.27;74.09
66337;SHT30;53139;45.576;5.304;2022-08-19T14:29:41;25.47;71.78
66337;SHT30;53139;45.576;5.304;2022-08-19T14:32:42;26.45;70.87
66337;SHT30;53139;45.576;5.304;2022-08-19T14:35:45;25.90;68.54
66337;SHT30;53139;45.576;5.304;2022-08-19T14:38:45;25.37;65.78
66337;SHT30;53139;45.576;5.304;2022-08-19T14:41:46;26.06;68.44
66337;SHT30;53139;45.576;5.304;2022-08-19T14:44:46;26.28;68.62
66337;SHT30;53139;45.576;5.304;2022-08-19T14:47:46;26.33;67.40
66337;SHT30;53139;45.576;5.304;2022-08-19T14:50:47;26.59;67.41
66337;SHT30;53139;45.576;5.304;2022-08-19T14:53:48;26.55;66.35
66337;SHT30;53139;45.576;5.304;2022-08-19T14:56:48;26.57;66.81
66337;SHT30;53139;45.576;5.304;2022-08-19T14:59:50;26.86;62.67
66337;SHT30;53139;45.576;5.304;2022-08-19T15:02:51;27.51;66.47
66337;SHT30;53139;45.576;5.304;2022-08-19T15:05:51;27.31;66.81
66337;SHT30;53139;45.576;5.304;2022-08-19T15:08:52;27.04;65.28
66337;SHT30;53139;45.576;5.304;2022-08-19T15:11:53;26.55;66.61
66337;SHT30;53139;45.576;5.304;2022-08-19T15:14:53;26.17;68.72
66337;SHT30;53139;45.576;5.304;2022-08-19T15:17:55;25.71;68.28
66337;SHT30;53139;45.576;5.304;2022-08-19T15:20:56;26.47;68.91
66337;SHT30;53139;45.576;5.304;2022-08-19T15:23:57;27.36;65.44
66337;SHT30;53139;45.576;5.304;2022-08-19T15:26:58;27.69;64.99
66337;SHT30;53139;45.576;5.304;2022-08-19T15:29:58;27.86;65.27
66337;SHT30;53139;45.576;5.304;2022-08-19T15:32:59;27.86;66.18
66337;SHT30;53139;45.576;5.304;2022-08-19T15:35:59;27.84;63.26
66337;SHT30;53139;45.576;5.304;2022-08-19T15:39:00;27.59;64.37
66337;SHT30;53139;45.576;5.304;2022-08-19T15:42:01;28.24;62.98
66337;SHT30;53139;45.576;5.304;2022-08-19T15:45:04;28.01;61.66
66337;SHT30;53139;45.576;5.304;2022-08-19T15:48:04;28.24;59.07
66337;SHT30;53139;45.576;5.304;2022-08-19T15:51:05;28.60;58.34
66337;SHT30;53139;45.576;5.304;2022-08-19T15:54:08;28.23;57.99
66337;SHT30;53139;45.576;5.304;2022-08-19T15:57:09;28.48;62.28
66337;SHT30;53139;45.576;5.304;2022-08-19T16:00:21;28.24;62.04
66337;SHT30;53139;45.576;5.304;2022-08-19T16:03:39;27.98;60.52
66337;SHT30;53139;45.576;5.304;2022-08-19T16:07:00;27.98;66.17
66337;SHT30;53139;45.576;5.304;2022-08-19T16:10:00;27.61;64.88
66337;SHT30;53139;45.576;5.304;2022-08-19T16:13:01;27.82;64.38
66337;SHT30;53139;45.576;5.304;2022-08-19T16:16:01;28.05;60.76
66337;SHT30;53139;45.576;5.304;2022-08-19T16:19:04;27.02;65.31
66337;SHT30;53139;45.576;5.304;2022-08-19T16:22:06;27.40;66.76
66337;SHT30;53139;45.576;5.304;2022-08-19T16:25:07;27.17;67.41
66337;SHT30;53139;45.576;5.304;2022-08-19T16:28:08;27.31;67.61
66337;SHT30;53139;45.576;5.304;2022-08-19T16:31:10;25.92;64.35
66337;SHT30;53139;45.576;5.304;2022-08-19T16:34:11;25.69;68.56
66337;SHT30;53139;45.576;5.304;2022-08-19T16:37:12;25.37;64.24
66337;SHT30;53139;45.576;5.304;2022-08-19T16:40:13;25.45;69.29
66337;SHT30;53139;45.576;5.304;2022-08-19T16:43:14;24.93;72.01
66337;SHT30;53139;45.576;5.304;2022-08-19T16:46:15;24.71;68.37
66337;SHT30;53139;45.576;5.304;2022-08-19T16:49:15;24.69;68.48
66337;SHT30;53139;45.576;5.304;2022-08-19T16:52:17;24.83;69.62
66337;SHT30;53139;45.576;5.304;2022-08-19T16:55:18;24.61;69.73
66337;SHT30;53139;45.576;5.304;2022-08-19T16:58:22;24.45;69.37
66337;SHT30;53139;45.576;5.304;2022-08-19T17:01:24;24.97;69.67
66337;SHT30;53139;45.576;5.304;2022-08-19T17:04:27;24.93;66.06
66337;SHT30;53139;45.576;5.304;2022-08-19T17:07:28;25.27;69.51
66337;SHT30;53139;45.576;5.304;2022-08-19T17:10:29;25.10;66.90
66337;SHT30;53139;45.576;5.304;2022-08-19T17:13:29;24.32;70.68
66337;SHT30;53139;45.576;5.304;2022-08-19T17:16:32;24.17;69.61
66337;SHT30;53139;45.576;5.304;2022-08-19T17:19:33;23.79;73.88
66337;SHT30;53139;45.576;5.304;2022-08-19T17:22:34;23.72;74.47
66337;SHT30;53139;45.576;5.304;2022-08-19T17:25:36;23.54;73.19
66337;SHT30;53139;45.576;5.304;2022-08-19T17:28:37;23.27;76.87
66337;SHT30;53139;45.576;5.304;2022-08-19T17:31:37;23.12;73.86
66337;SHT30;53139;45.576;5.304;2022-08-19T17:34:38;22.94;72.43
66337;SHT30;53139;45.576;5.304;2022-08-19T17:37:38;22.74;73.38
66337;SHT30;53139;45.576;5.304;2022-08-19T17:40:38;22.56;75.24
66337;SHT30;53139;45.576;5.304;2022-08-19T17:43:42;22.44;75.01
66337;SHT30;53139;45.576;5.304;2022-08-19T17:46:42;22.32;75.07
66337;SHT30;53139;45.576;5.304;2022-08-19T17:49:44;22.20;78.95
66337;SHT30;53139;45.576;5.304;2022-08-19T17:52:44;22.18;78.17
66337;SHT30;53139;45.576;5.304;2022-08-19T17:55:44;22.00;75.32
66337;SHT30;53139;45.576;5.304;2022-08-19T17:58:45;21.91;77.57
66337;SHT30;53139;45.576;5.304;2022-08-19T18:01:47;21.80;77.85
66337;SHT30;53139;45.576;5.304;2022-08-19T18:04:47;21.69;77.38
66337;SHT30;53139;45.576;5.304;2022-08-19T18:07:54;21.62;78.11
66337;SHT30;53139;45.576;5.304;2022-08-19T18:10:56;21.43;76.46
66337;SHT30;53139;45.576;5.304;2022-08-19T18:13:56;21.36;77.66
66337;SHT30;53139;45.576;5.304;2022-08-19T18:16:57;21.27;80.29
66337;SHT30;53139;45.576;5.304;2022-08-19T18:19:58;21.01;77.25
66337;SHT30;53139;45.576;5.304;2022-08-19T18:22:58;20.93;80.42
66337;SHT30;53139;45.576;5.304;2022-08-19T18:26:00;20.80;77.19
66337;SHT30;53139;45.576;5.304;2022-08-19T18:29:01;20.72;80.20
66337;SHT30;53139;45.576;5.304;2022-08-19T18:32:01;20.64;78.83
66337;SHT30;53139;45.576;5.304;2022-08-19T18:35:08;20.67;81.33
66337;SHT30;53139;45.576;5.304;2022-08-19T18:38:11;20.42;79.84
66337;SHT30;53139;45.576;5.304;2022-08-19T18:41:30;20.52;83.05
66337;SHT30;53139;45.576;5.304;2022-08-19T18:44:49;20.42;84.81
66337;SHT30;53139;45.576;5.304;2022-08-19T18:48:08;20.32;81.69
66337;SHT30;53139;45.576;5.304;2022-08-19T18:51:27;20.35;80.89
66337;SHT30;53139;45.576;5.304;2022-08-19T18:54:31;20.45;82.92
66337;SHT30;53139;45.576;5.304;2022-08-19T18:57:32;20.40;81.37
66337;SHT30;53139;45.576;5.304;2022-08-19T19:00:33;20.21;81.54
66337;SHT30;53139;45.576;5.304;2022-08-19T19:03:35;20.28;82.45
66337;SHT30;53139;45.576;5.304;2022-08-19T19:06:39;20.05;82.28
66337;SHT30;53139;45.576;5.304;2022-08-19T19:09:40;20.18;81.21
66337;SHT30;53139;45.576;5.304;2022-08-19T19:12:42;20.02;82.09
66337;SHT30;53139;45.576;5.304;2022-08-19T19:15:46;19.97;82.82
66337;SHT30;53139;45.576;5.304;2022-08-19T19:18:48;19.92;83.02
66337;SHT30;53139;45.576;5.304;2022-08-19T19:21:51;19.92;84.05
66337;SHT30;53139;45.576;5.304;2022-08-19T19:24:52;19.85;82.72
66337;SHT30;53139;45.576;5.304;2022-08-19T19:27:55;19.52;82.76